Logo AVAMET
Benvolgut visitant, si us plau, ingressa Recuperar contrasenya

Ibi Torretes/Font Roja

Dades diàries. Acumulats / Últims 30 dies disponibles

Data Temperatura (°C) Humitat rel. (%) Pressió rel. (hPa) Vent (km/h) Precipitació
Mínima Mitjana Màxima Amplitud
tèrmica
Mínima Mitjana Màxima Mínima Mitjana Màxima Predom. Mitjana Ràfega
màxima
Total
(mm)
Índex-n
Mínima Mitjana Màxima Mínima Mitjana Màxima n
0 a 1
P0 max
mm 5'
Dades mensuals acumulades fins l'últim dia disponible
11/2019 2,1 6,3 14,1 9,4 7,9 13,5 21,2 19,1 35 64 91 998 1.009 1.019   6,6 61,2 6,8
Dades anuals acumulades fins l'últim dia disponible
2019 -2,5 10,7 23,4 15,4 6,2 21,0 36,3 38,8 8 55 96 992 1.015 1.034   4,2 62,8 385,2
Últims 30 dies disponibles
18-11-2019 4,0     6,4     11,1 7,1 51 68 91 1.005 1.009 1.015 SE 3,2 33,8 1,8
17-11-2019 2,2     6,3     11,8 9,6 46 64 91 1.008 1.012 1.014 S 7,2 38,6 1,4
16-11-2019 2,1     5,2     9,6 7,5 45 60 73 1.005 1.010 1.015 NE 2,9 25,7 0,0
15-11-2019 2,7     4,9     7,9 5,2 52 67 78 998 1.002 1.006 S 6,0 38,6 0,0
14-11-2019 4,9     7,7     10,6 5,7 59 72 90 998 1.002 1.009 S 7,7 45,1 0,6
13-11-2019 7,0     10,6     15,9 8,9 53 68 89 1.004 1.007 1.011 S 6,1 45,1 0,2
12-11-2019 3,1     8,2     13,2 10,1 35 52 67 1.008 1.010 1.011 S 4,8 41,8 0,0
11-11-2019 2,1     6,9     11,1 9,0 47 60 73 1.010 1.012 1.014 NE 5,1 61,2 0,2
10-11-2019 4,4     6,9     9,8 5,4 47 67 88 1.010 1.011 1.013 S 9,2 40,2 2,0 0,19 0,80
09-11-2019 4,1     7,8     11,8 7,7 36 59 87 1.012 1.016 1.019 S 5,5 37,0 0,6
08-11-2019 4,1     6,9     10,4 6,3 46 58 74 1.007 1.011 1.016 S 8,9 46,7 0,0
07-11-2019 5,9     9,9     15,2 9,3 36 64 81 1.007 1.009 1.013 S 5,6 33,8 0,0
06-11-2019 6,6     9,7     14,7 8,1 38 61 77 1.011 1.012 1.013 S 4,0 37,0 0,0
05-11-2019 8,1     10,6     13,3 5,2 47 65 89 1.004 1.008 1.012 S 8,0 48,3 0,0
04-11-2019 11,4     14,3     18,9 7,5 45 65 78 1.005 1.008 1.011 WSW 10,0 48,3 0,0
03-11-2019 12,5     14,4     17,3 4,8 54 65 79 1.001 1.004 1.010 S 10,9 53,1 0,0
02-11-2019 13,8     15,9     19,6 5,8 48 68 77 1.003 1.008 1.012 S 9,3 45,1 0,0
01-11-2019 14,1     17,3     21,2 7,1 58 72 86 1.012 1.016 1.019 S 5,0 37,0 0,0
31-10-2019 13,7     16,6     20,5 6,8 54 68 83 1.017 1.018 1.020 S 2,5 33,8 0,0
30-10-2019 11,6     16,2     21,6 10,0 43 63 80 1.016 1.018 1.020 S 1,0 20,9 0,0
29-10-2019 13,1     16,9     22,7 9,6 40 61 76 1.013 1.015 1.017 SSW 1,0 17,7 0,0
28-10-2019 10,4     13,8     17,8 7,4 52 73 90 1.015 1.016 1.018 SSW 0,2 11,3 0,0
27-10-2019 9,7     13,8     20,2 10,5 59 78 93 1.018 1.019 1.021 NE 0,8 14,5 0,0
26-10-2019 11,6     15,2     21,6 10,0 44 68 90 1.017 1.019 1.020 SSW 0,8 14,5 0,0
25-10-2019 7,8     13,4     19,4 11,6 45 64 83 1.019 1.020 1.022 NE 1,1 24,1 0,0
24-10-2019 6,6     10,5     14,8 8,2 56 71 86 1.010 1.015 1.020 S 5,3 46,7 0,0
23-10-2019 5,4     8,1     13,6 8,2 53 82 96 1.005 1.007 1.011 SW 2,9 32,2 1,0
22-10-2019 7,9     9,2     11,4 3,5 74 89 94 1.004 1.008 1.015 NE 5,0 59,5 43,0
21-10-2019 6,7     10,6     14,4 7,7 55 70 83 1.014 1.015 1.016 NE 0,5 16,1 0,0
20-10-2019 8,0     12,7     15,9 7,9 61 75 89 1.003 1.007 1.014 WSW 1,4 25,7 2,8
Últims 13 mesos disponibles
10/2019 5,4 11,8 17,6 16,1 11,4 21,6 28,3 22,9 39 62 89 1.007 1.015 1.020 NE 1,9 59,5 47,0
09/2019 9,8 15,3 17,8 19,3 16,3 24,5 29,9 20,1 41 70 92 1.008 1.015 1.021 NE 3,6 41,8 117,4
08/2019 14,7 18,5 23,4 23,6 23,8 30,0 36,3 21,6 25 53 81 1.008 1.013 1.017 NE 3,0 32,2 3,8
07/2019 15,2 19,0 22,8 24,7 25,6 30,7 35,6 20,4 24 41 71 1.004 1.011 1.018 NE 3,4 46,7 0,2
06/2019 9,2 14,7 20,8 20,4 18,2 26,9 35,5 26,3 19 44 74 1.006 1.012 1.020 NE 4,2 41,8 2,8
05/2019 4,4 12,4 16,8 16,3 21,1 26,8 22,4 26 53 73 1.003 1.012 1.023 SSW 3,4 45,1 5,8
04/2019 2,7 6,8 10,4 10,7 9,1 15,7 23,3 20,6 36 68 95 998 1.011 1.023 NE 5,8 48,3 174,4
03/2019 1,9 6,0 11,2 10,8 8,6 16,2 23,3 21,4 21 51 87 1.009 1.020 1.028 NE 5,8 45,1 21,2
02/2019 -2,0 3,7 9,7 8,9 6,8 15,2 22,5 24,5 23 51 77 994 1.023 1.031 NE 4,6 62,8 5,0
01/2019 -2,5 2,8 6,7 7,1 6,2 12,3 17,5 20,0 27 54 79 1.002 1.017 1.029 NNE 5,0 61,2 0,8
12/2018 2,6 5,9 12,7 10,4 9,1 15,7 23,3 20,7 28 56 87 1.008 1.023 1.030 NNE 3,5 59,5 29,6
11/2018 3,4 6,9 11,4 10,1 9,1 14,1 20,2 16,8 20 70 92 998 1.013 1.020 NE 5,0 51,5 49,0
10/2018 1,8 10,5 14,4 14,4 8,7 19,6 25,6 23,8 39 68 85 997 1.011 1.021 NE 4,1 53,1 55,8
Tots els anys disponibles
2018 -2,4 9,5 21,4 13,7 2,6 18,8 32,9 35,3 20 65 92 997 1.016 1.030 NE 4,7 77,2 420,0
2017 -5,0 10,4 24,6 14,9 0,7 20,4 37,4 42,4 4,7 77,2 358,0
2016 -2,0 10,4 24,5 14,6 4,6 19,7 37,2 39,2 5,0 67,6 454,8
2015 -0,8 12,4 25,2 16,8 7,0 22,2 36,4 37,2 NE 4,3 51,5 274,4
Temperatura (°C)
Humitat relativa (%)
Pressió (hPa)
Precipitació (mm)
Nota sobre les dades: s'avisa a l'usuari de la provisionalitat i no oficialitat d'aquestes dades
Logo AVAMET blanc
Web allotjada a Sollutia
Llicència de Creative CommonsLa web d'AVAMET i els seus continguts estan subjectes a una llicència de
Reconeixement - No Comercial - Compartir igual
Últimes estacions: Xàbia - Alt de la Granadella (Soci), Villena - Sierra de Salinas (Soci), Sueca - Centre (Inforatge), Xàbia - La Plana (Soci), - - -